Tall Timbers, Maryland
Current Conditions -  °F | °C
As of 7:53 AM on Friday 19 Dec 2014 (Local Time) from KNUI Reporting Station
Broken Clouds Broken Clouds  
Wind Chill: 29°   Ceiling: 9000
Heat Index: 35°   Visibility: 10mi
Dew Point: 21°   Wind: 7mph
Humidity: 57%   Direction: 320°NW
Pressure: 30.15"   Gusts: NA
Location:  38.17°N, 76.55°W
Report Text: KNUI 191253Z AUTO 32006KT 10SM BKN090 02/M06 A3015 RMK AO2 SLP209 T00171061
Loading
Personal Weather Stations






























Interactive Weather Map New forecast layout! Learn more

10-Day Weather Forecast

Advertisements
Track Severe Weather on mobile